logo
App data

Mystery P.I. - The New York Fortune

A fun loving & eccentric New York billionaire has hidden the will to his vast fortune somewhere in New York City! His family only has 17 hours to locate the will or their Grandpa's entire estate will be given to his cat & dog. You are the world famous Mystery P.I. and the family has hired you to track down the clues hidden all over NYC.
Store | Hub | SteamDB
Developer: SpinTop Games Publisher: PopCap Games, Inc.
Genre: Casual
Languages: English
Tags: Casual (23), Hidden Object (8)
Category: Single-player
Release date: Jan 14, 2009
Price: $4.99
Owners: 20,000 .. 50,000
Followers: 59
Peak concurrent players yesterday: 4
Playtime total: 09:20 (average) 09:20 (median)

Steam Spy is still in beta, so expect major bugs.

Owners data:

Access restricted.

This feature is only available to users with special access rights. Sorry.

If you want to proceed, you need to register or log in first and then back Steam Spy on Patreon. Look for Indie or Pro pledge.

Don't forget to use the same email as on Steam Spy!

Audience in 2 weeks:

Access restricted.

This feature is only available to users with special access rights. Sorry.

If you want to proceed, you need to register or log in first and then back Steam Spy on Patreon. Look for Indie or Pro pledge.

Don't forget to use the same email as on Steam Spy!

Peak daily concurrent players:

CCU data courtesy of SteamDB. Used with permission.

Hourly concurrent players:

Daily Twitch stats:

Hourly Twitch stats:

YouTube:

The views data is based on top 50 videos uploaded last week. Actual number of views might be more than the number shown.

The displayed number of videos uploaded yesterday is limited to 50, so if there were more videos uploaded, the number will still show 50.

If the game has commonly used word as its name (like "FEAR" or "Volume") its number of Youtube views might be wrong.

Games similar to this one:

# Game Release date
Price
Score rank
(Userscore / Metascore)
Owners
Players
Playtime (Median)
1 Puppy Dog: Jigsaw Puzzles Jul 19, 2016 $1.99100% (100%)20,000 .. 50,0000%00:00 (00:00)
2 Legends of Atlantis: Exodus Sep 3, 2015 $6.99N/A (N/A)0 .. 20,0000%00:00 (00:00)
3 Peggle Nights Oct 15, 2008 $4.9990% (94%/76%)200,000 .. 500,0001.84%01:03 (01:00)
4 Tradewinds Classics Jul 17, 2009 $4.99N/A (N/A)0 .. 20,0000%00:00 (00:00)
5 Chuzzle Deluxe Aug 30, 2006 $4.9987% (93%)50,000 .. 100,0000%00:00 (00:00)
6 Princess Maker 2 Refine Sep 28, 2016 $19.9984% (92%)20,000 .. 50,0000%00:00 (00:00)
7 YOU DON’T KNOW JACK Feb 8, 2011 N/A84% (92%/71%)0 .. 20,00011.11%01:37 (00:32)
8 Farm Frenzy 2 Feb 15, 2010 $4.99N/A (N/A)0 .. 20,0000%00:00 (00:00)
9 Zuma Deluxe Aug 30, 2006 $4.9984% (92%)50,000 .. 100,0001.49%01:07 (00:22)
10 Alice's Patchwork Mar 3, 2016 $4.9980% (91%)20,000 .. 50,0002.08%04:21 (04:30)
11 Bejeweled 2 Deluxe Aug 30, 2006 $4.9980% (91%)50,000 .. 100,0002.7%00:01 (00:00)
12 Gnomes Garden 2 May 18, 2016 $4.99N/A (N/A)20,000 .. 50,0000%00:00 (00:00)
13 Hidden Object Bundle 4 in 1 Oct 6, 2015 $7.9980% (91%)20,000 .. 50,0000%00:00 (00:00)
14 Kitty Cat: Jigsaw Puzzles Jul 18, 2016 $1.9980% (91%)50,000 .. 100,0000%00:00 (00:00)
15 Gemini Lost May 6, 2010 $6.99N/A (N/A)0 .. 20,0000%00:00 (00:00)
16 Stikbold! A Dodgeball Adventure Apr 1, 2016 $9.9974% (89%)50,000 .. 100,0000%00:00 (00:00)
17 Putt-Putt and Fatty Bear's Activity Pack May 15, 2014 $4.99N/A (N/A)20,000 .. 50,0000%00:00 (00:00)
18 Mr Nibbles Forever Apr 29, 2016 $0.99N/A (N/A)0 .. 20,0000%00:00 (00:00)
19 Puzzler World May 28, 2010 $4.9971% (88%)50,000 .. 100,0000.81%00:22 (00:07)
20 Hidden Object 6-in-1 bundle Mar 16, 2016 $11.9971% (88%)20,000 .. 50,0000%00:00 (00:00)
21 Baseball Mogul 2015 Jul 24, 2015 $4.99N/A (N/A)20,000 .. 50,0000%00:00 (00:00)
22 Shufflepuck Cantina Deluxe Dec 6, 2013 $9.9971% (88%)100,000 .. 200,0000%00:00 (00:00)
23 Luxor 3 Jun 10, 2008 $9.9971% (88%)20,000 .. 50,0000%00:00 (00:00)
24 Big Thinkers 1st Grade Aug 18, 2015 $6.99N/A (N/A)0 .. 20,0000%00:00 (00:00)
25 Space Codex May 17, 2016 $0.9966% (86%)50,000 .. 100,0000%00:00 (00:00)
26 Pretty Girls Panic! Dec 19, 2016 $1.9963% (85%)20,000 .. 50,0000%00:00 (00:00)
27 Brink of Consciousness: The Lonely Hearts Murders Nov 24, 2014 $9.9963% (85%)0 .. 20,0000%00:00 (00:00)
28 Among the Heavens Nov 6, 2015 $2.9963% (85%)50,000 .. 100,0000%00:00 (00:00)
29 Little Racers STREET Feb 6, 2014 $5.9961% (84%/62%)100,000 .. 200,0000%00:00 (00:00)
30 Plant Tycoon May 12, 2008 $9.99N/A (N/A)0 .. 20,0000%00:00 (00:00)
31 Cranky Cat Jun 5, 2013 $2.99N/A (N/A)0 .. 20,0000%00:00 (00:00)
32 My Riding Stables: Life with Horses Mar 27, 2014 $14.9958% (83%)0 .. 20,0000%00:00 (00:00)
33 BasketBelle Dec 9, 2014 $4.9958% (83%)0 .. 20,0000%00:00 (00:00)
34 Gnomes Garden Dec 18, 2015 $4.9956% (82%)20,000 .. 50,0000.35%01:09 (00:23)
35 Urban Trial Freestyle Sep 18, 2013 $6.9956% (82%/58%)100,000 .. 200,0000.77%00:28 (00:18)
36 Crash Time 3 Nov 25, 2009 $5.9953% (81%)20,000 .. 50,0000%00:00 (00:00)
37 Combat Wings: Battle of Britain Oct 14, 2009 $4.9953% (81%)100,000 .. 200,0000%00:00 (00:00)
38 Crash Dive Jul 6, 2015 $6.9953% (81%)0 .. 20,0000%00:00 (00:00)
39 Venice Deluxe Jun 25, 2007 $4.99N/A (N/A)20,000 .. 50,0000%00:00 (00:00)
40 Mystery Case Files: Madame Fate Dec 14, 2007 $6.99N/A (N/A)0 .. 20,0000%00:00 (00:00)
41 Radial-G : Racing Revolved Mar 28, 2016 $9.9951% (80%)0 .. 20,0000%00:00 (00:00)
42 Mahjong Destiny Jun 17, 2016 $2.9951% (80%)50,000 .. 100,0000%00:00 (00:00)
43 The Wizard's Pen Feb 18, 2009 $4.99N/A (N/A)20,000 .. 50,0000%00:00 (00:00)
44 7 Wonders: Treasures of Seven Nov 14, 2008 $9.9951% (80%)20,000 .. 50,0000%00:00 (00:00)
45 Rotastic Oct 11, 2012 $9.99N/A (N/A)0 .. 20,0000%00:00 (00:00)
46 Mystery P.I. - Lost in Los Angeles Jul 27, 2009 $4.99N/A (N/A)20,000 .. 50,0008.33%00:02 (00:00)
47 Virtual Villagers - The Secret City May 28, 2008 $9.99N/A (N/A)0 .. 20,0000%00:00 (00:00)
48 Typer Shark! Deluxe Aug 30, 2006 $4.9949% (79%)20,000 .. 50,0000%00:00 (00:00)
49 Qvadriga Jun 13, 2014 $19.9947% (78%/72%)20,000 .. 50,0000%00:00 (00:00)
50 Sea Legends: Phantasmal Light Collector's Edition Sep 17, 2014 $4.9947% (78%)20,000 .. 50,0000%00:00 (00:00)
51 Elementary My Dear Majesty! Apr 16, 2015 $0.9943% (76%)20,000 .. 50,0000%00:00 (00:00)
52 Virtual Villagers: The Lost Children May 12, 2008 $9.99N/A (N/A)0 .. 20,0000%00:00 (00:00)
53 Vehicle Simulator Dec 9, 2015 $2041% (75%)0 .. 20,0000%00:00 (00:00)
54 Pretty Girls Mahjong Solitaire Aug 24, 2015 $4.9941% (75%)20,000 .. 50,0000%00:00 (00:00)
55 Hotel Dash Suite Success May 6, 2010 $6.99N/A (N/A)0 .. 20,0000%00:00 (00:00)
56 Amazing Adventures Around the World Apr 15, 2009 $4.99N/A (N/A)20,000 .. 50,0005.88%02:15 (00:45)
57 Home Design 3D Nov 20, 2015 $9.9939% (74%)20,000 .. 50,0000%00:00 (00:00)
58 Toilet Tycoon Sep 17, 2015 $4.9939% (74%)0 .. 20,0000%00:00 (00:00)
59 Zombie Solitaire Jul 3, 2014 $8.9939% (74%)0 .. 20,0000%00:00 (00:00)
60 Evolution Planet: Gold Edition Jul 7, 2016 $4.99N/A (N/A)0 .. 20,0000%00:00 (00:00)
61 Ski Region Simulator - Gold Edition Jan 31, 2014 $8.9938% (73%)20,000 .. 50,0005.56%00:02 (00:01)
62 StuntMANIA Reloaded Nov 13, 2014 $4.9936% (72%)20,000 .. 50,0000%00:00 (00:00)
63 aerofly RC 7 Nov 6, 2014 $39.9934% (71%)0 .. 20,0000%00:00 (00:00)
64 Football Mogul 2014 May 28, 2015 $4.99N/A (N/A)20,000 .. 50,0000%00:00 (00:00)
65 Cooking Dash Aug 12, 2009 $9.99N/A (N/A)0 .. 20,0000%00:00 (00:00)
66 Runaway Express Mystery Sep 23, 2014 $6.99N/A (N/A)0 .. 20,0000%00:00 (00:00)
67 Monster Mash Jul 17, 2009 $4.99N/A (N/A)0 .. 20,0000%00:00 (00:00)
68 Mystery P.I. - The Lottery Ticket Oct 16, 2007 $4.99N/A (N/A)20,000 .. 50,0000%00:00 (00:00)
69 MiniDrivers Aug 31, 2015 $5.9931% (69%)20,000 .. 50,0000%00:00 (00:00)
70 Diner Mania Jun 25, 2015 $0.5131% (69%)0 .. 20,0000%00:00 (00:00)
71 Polaris Sector Mar 22, 2016 $39.9929% (68%/76%)0 .. 20,0000%00:00 (00:00)
72 Chocolatier: Decadence by Design Aug 12, 2009 $9.9928% (67%)0 .. 20,0000%00:00 (00:00)
73 Mystery P.I. - The Vegas Heist Jun 5, 2008 $4.99N/A (N/A)20,000 .. 50,0000%00:00 (00:00)
74 Luxor Jun 10, 2008 $9.99N/A (N/A)0 .. 20,0000%00:00 (00:00)
75 Pro Cycling Manager 2014 Jun 19, 2014 $9.9924% (64%)20,000 .. 50,0000%00:00 (00:00)
76 PAC-MAN CHAMPIONSHIP EDITION 2 Sep 13, 2016 $12.9924% (64%)50,000 .. 100,0000.99%00:03 (00:01)
77 Bridge It + Nov 18, 2013 $6.9923% (63%)20,000 .. 50,0000%00:00 (00:00)
78 City Life 2008 Sep 29, 2008 $9.9923% (63%)20,000 .. 50,0000%00:00 (00:00)
79 Castle: Never Judge a Book by its Cover Jun 9, 2014 N/A23% (63%)20,000 .. 50,0000%00:00 (00:00)
80 Meridian: Age of Invention Sep 30, 2015 $2.9923% (63%)20,000 .. 50,0000%00:00 (00:00)
81 Zooloretto Apr 3, 2014 $2.99N/A (N/A)0 .. 20,0000%00:00 (00:00)
82 Aerofly FS 1 Flight Simulator Oct 17, 2012 $19.9922% (62%)0 .. 20,0000%00:00 (00:00)
83 Jane Angel: Templar Mystery Sep 17, 2014 $4.99N/A (N/A)0 .. 20,0000%00:00 (00:00)
84 DinerTown Tycoon Sep 30, 2009 $9.99N/A (N/A)0 .. 20,0000%00:00 (00:00)
85 Air Conflicts: Secret Wars Sep 30, 2011 $5.9919% (60%/65%)50,000 .. 100,0000%00:00 (00:00)
86 Cities in Motion 2 Apr 2, 2013 $19.9918% (59%/72%)500,000 .. 1,000,0000.23%02:58 (01:58)
87 Hacker Evolution: Untold Sep 14, 2010 $4.9917% (58%)200,000 .. 500,0000.34%162:34 (108:22)
88 Riding Star - Horse Championship! Mar 27, 2014 $9.99N/A (N/A)0 .. 20,0000%00:00 (00:00)
89 Kumoon : Ballistic Physics Puzzle Nov 10, 2015 $2.9915% (55%)0 .. 20,0000%00:00 (00:00)
90 Pacific Storm Allies Aug 18, 2008 $7.9913% (52%/60%)50,000 .. 100,0000%00:00 (00:00)
91 Poker Pretty Girls Battle: Texas Hold'em Oct 21, 2015 $9.9913% (52%)20,000 .. 50,0000%00:00 (00:00)
92 Speed Kills May 16, 2014 $1.2912% (51%)200,000 .. 500,0000.46%01:59 (00:54)
93 Luxor: Quest for the Afterlife Dec 15, 2008 $9.99N/A (N/A)20,000 .. 50,0000%00:00 (00:00)
94 300 Dwarves Jun 5, 2014 $6.9911% (50%)0 .. 20,0000%00:00 (00:00)
95 Firefighters 2014 May 21, 2014 $19.9911% (50%)50,000 .. 100,0000%00:00 (00:00)
96 Ludo Supremo Jun 8, 2016 $2.9911% (50%)20,000 .. 50,0000.51%01:01 (00:20)
97 EVEREST VR Aug 2, 2016 $14.9910% (47%)0 .. 20,0000%00:00 (00:00)
98 Shannon Tweed's Attack Of The Groupies Apr 1, 2014 $4.99N/A (N/A)0 .. 20,0000%00:00 (00:00)
99 Lords of Football Apr 5, 2013 $4.999% (46%/52%)20,000 .. 50,0002.38%04:43 (01:34)
100 Transport Giant Sep 5, 2014 $9.999% (45%)20,000 .. 50,0000%00:00 (00:00)
101 Theme Park Studio Dec 2, 2016 $29.998% (44%)0 .. 20,0000%00:00 (00:00)
102 Luxor 2 Jun 10, 2008 $9.99N/A (N/A)20,000 .. 50,0000%00:00 (00:00)
103 Silent Hunter 5: Battle of the Atlantic Mar 2010 $9.997% (41%/62%)50,000 .. 100,0000%00:00 (00:00)
104 Ship Simulator: Maritime Search and Rescue Jul 1, 2014 $17.997% (41%)20,000 .. 50,0000%00:00 (00:00)
105 Echelon Jul 3, 2014 $3.996% (38%/70%)20,000 .. 50,0000%00:00 (00:00)
106 RECYCLE Sep 3, 2014 $9.995% (37%)20,000 .. 50,0000%00:00 (00:00)
107 Diner Dash: Hometown Hero Aug 12, 2009 $9.995% (35%)0 .. 20,0000%00:00 (00:00)
108 Firefighters - The Simulation Aug 31, 2016 $14.99N/A (N/A)0 .. 20,0000%00:00 (00:00)
109 Industry Empire Jul 30, 2014 $19.994% (32%)20,000 .. 50,0000%00:00 (00:00)
110 Tetris Ultimate Dec 10, 2015 $14.993% (30%)0 .. 20,0008.33%00:32 (00:10)
111 City Play May 19, 2016 $3.99N/A (N/A)0 .. 20,0000%00:00 (00:00)
112 The Terminal 2 Aug 8, 2014 $4.993% (25%)0 .. 20,0000%00:00 (00:00)
113 G-Ball May 28, 2014 $0.992% (19%)0 .. 20,0000%00:00 (00:00)
114 Airline Tycoon 2 Oct 24, 2011 $9.992% (17%/57%)100,000 .. 200,0000%00:00 (00:00)
115 The Flying Dutchman Sep 12, 2014 $4.991% (3%)0 .. 20,0000%00:00 (00:00)
116 Bayla Bunny Jun 13, 2016 $2.99N/A (N/A)50,000 .. 100,0000.52%00:40 (00:13)
117 TriJinx: A Kristine Kross Mystery May 6, 2010 $6.99N/A (N/A)0 .. 20,0000%00:00 (00:00)
118 Discovery! A Seek and Find Adventure Jul 29, 2008 $9.99N/A (N/A)0 .. 20,0000%00:00 (00:00)
119 Dessert Storm Oct 23, 2016 $1.99N/A (N/A)20,000 .. 50,0000.54%00:01 (00:00)
120 Bubble Blowout Oct 24, 2016 $1.99N/A (N/A)20,000 .. 50,0000.55%02:02 (00:40)
121 Barnyard Mahjong 3 Jul 29, 2016 $4.99N/A (N/A)50,000 .. 100,0000%00:00 (00:00)
122 Them - The Summoning May 16, 2014 $4.99N/A (N/A)0 .. 20,0000%00:00 (00:00)
123 Farm Frenzy 3 Feb 15, 2010 $9.99N/A (N/A)0 .. 20,0000%00:00 (00:00)
124 Rush for gold: California Mar 9, 2016 $3.99N/A (N/A)50,000 .. 100,0000%00:00 (00:00)
125 The Hidden Dragon Jul 26, 2016 $4.99N/A (N/A)0 .. 20,0001.5%02:02 (02:00)
126 Tropical Fish Shop 2 Mar 9, 2016 $3.99N/A (N/A)0 .. 20,0000%00:00 (00:00)
127 Solitaire Christmas. Match 2 Cards Dec 24, 2015 $4.99N/A (N/A)20,000 .. 50,0000.4%01:45 (00:35)
128 Nokori Mar 25, 2016 $1.99N/A (N/A)0 .. 20,0000%00:00 (00:00)
129 Brain Spa Oct 10, 2008 $9.99N/A (N/A)0 .. 20,0000%00:00 (00:00)
130 Chainz 2: Relinked Jul 13, 2009 $9.99N/A (N/A)0 .. 20,0000%00:00 (00:00)
131 Fantastic 4 In A Row 2 Aug 15, 2016 $1.99N/A (N/A)50,000 .. 100,0000%00:00 (00:00)

Tags over time:

Access restricted.

This feature is only available to users with special access rights. Sorry.

If you want to proceed, you need to register or log in first and then back Steam Spy on Patreon. Look for Indie or Pro pledge.

Don't forget to use the same email as on Steam Spy!

Owners of this game also own:

Access restricted.

This feature is only available to users with special access rights. Sorry.

If you want to proceed, you need to register or log in first and then back Steam Spy on Patreon. Look for Indie or Pro pledge.

Don't forget to use the same email as on Steam Spy!

Playtime distribution:

Access restricted.

This feature is only available to users with special access rights. Sorry.

If you want to proceed, you need to register or log in first and then back Steam Spy on Patreon. Look for Indie or Pro pledge.

Don't forget to use the same email as on Steam Spy!

Playtime (2 weeks):

Access restricted.

This feature is only available to users with special access rights. Sorry.

If you want to proceed, you need to register or log in first and then back Steam Spy on Patreon. Look for Indie or Pro pledge.

Don't forget to use the same email as on Steam Spy!

User reviews:

Login required.

Please register or log in to see this information.